Decoded Metar for LETU ( in ) (IATA:) | Meteo·Mobile Aviation Weather
aviador You're here:

LETU Decoded Metar

in
Report Time2019-10-19 22:00:00
UTC Time2019-10-19 22:18:52
Flight Rules vfr VFR
Wind160° at 15 kt
Visibility9999 m
Phenomena:N/A
Clouds:N/A
Expected CloudBase > 4,000 ft AGL from Temp-Dew spread
CeilingNone
Temp20°C
Dew Point10°C (53% RH)
AAT14.7°C
QNH1004 hPa
Raw Report
METAR LETU 192200Z AUTO 16015KT 9999 NSC 20/10 Q1004=

Extra information for LETU:More info

Social comments